createdAt,value
2022-08-30T00:00:09.223Z,228.87
2022-08-30T00:01:14.115Z,224.18
2022-08-30T00:02:10.580Z,221.90
2022-08-30T00:03:09.804Z,219.38
2022-08-30T00:04:09.749Z,212.01
2022-08-30T00:05:09.839Z,212.70
2022-08-30T00:06:10.000Z,212.97
2022-08-30T00:07:10.156Z,218.07
2022-08-30T00:08:10.236Z,222.05
2022-08-30T00:09:10.336Z,223.87
2022-08-30T00:10:10.446Z,227.60
2022-08-30T00:11:10.587Z,226.03
2022-08-30T00:12:10.684Z,223.11
2022-08-30T00:13:10.775Z,221.01
2022-08-30T00:14:10.924Z,223.72
2022-08-30T00:15:11.026Z,230.64
2022-08-30T00:16:11.395Z,234.76
2022-08-30T00:17:11.355Z,231.12
2022-08-30T00:18:11.405Z,235.77
2022-08-30T00:19:11.505Z,235.60
2022-08-30T00:20:11.665Z,234.59
2022-08-30T00:21:11.915Z,228.87
2022-08-30T00:22:11.904Z,226.03
2022-08-30T00:23:12.065Z,225.25
2022-08-30T00:24:12.162Z,228.87
2022-08-30T00:25:12.264Z,222.96
2022-08-30T00:26:12.503Z,217.06
2022-08-30T00:27:12.514Z,212.56
2022-08-30T00:28:12.652Z,215.63
2022-08-30T00:29:12.742Z,220.12
2022-08-30T00:30:12.903Z,217.92
2022-08-30T00:31:13.542Z,222.20
2022-08-30T00:32:13.453Z,224.64
2022-08-30T00:33:13.350Z,222.05
2022-08-30T00:34:13.513Z,216.06
2022-08-30T00:35:13.573Z,220.26
2022-08-30T00:36:13.762Z,217.63
2022-08-30T00:37:13.961Z,214.22
2022-08-30T00:38:14.012Z,203.72
2022-08-30T00:39:13.992Z,202.33
2022-08-30T00:40:14.202Z,198.90
2022-08-30T00:41:14.262Z,203.34
2022-08-30T00:42:14.579Z,201.84
2022-08-30T00:43:14.635Z,204.35
2022-08-30T00:44:14.641Z,208.37
2022-08-30T00:45:14.781Z,205.37
2022-08-30T00:46:15.001Z,207.32
2022-08-30T00:47:15.240Z,207.19
2022-08-30T00:48:15.263Z,203.09
2022-08-30T00:49:15.303Z,202.83
2022-08-30T00:50:15.414Z,206.80
2022-08-30T00:51:15.532Z,205.89
2022-08-30T00:52:15.770Z,202.46
2022-08-30T00:53:15.881Z,209.04
2022-08-30T00:54:16.029Z,205.50
2022-08-30T00:55:16.028Z,205.89
2022-08-30T00:56:16.130Z,208.90
2022-08-30T00:57:16.238Z,209.30
2022-08-30T00:58:16.369Z,213.80
2022-08-30T00:59:16.587Z,214.93
2022-08-30T01:00:16.648Z,212.28
2022-08-30T01:01:16.791Z,212.97
2022-08-30T01:02:16.918Z,210.92
2022-08-30T01:03:17.161Z,210.51
2022-08-30T01:04:17.238Z,212.70
2022-08-30T01:05:17.224Z,210.11
2022-08-30T01:06:17.376Z,213.11
2022-08-30T01:07:17.499Z,216.49
2022-08-30T01:08:17.697Z,212.56
2022-08-30T01:09:17.739Z,212.42
2022-08-30T01:10:17.847Z,212.42
2022-08-30T01:11:17.987Z,211.74
2022-08-30T01:12:18.236Z,210.11
2022-08-30T01:13:18.357Z,209.84
2022-08-30T01:14:18.305Z,206.15
2022-08-30T01:15:18.475Z,201.22
2022-08-30T01:16:18.612Z,193.16
2022-08-30T01:17:19.097Z,190.36
2022-08-30T01:18:18.813Z,185.01
2022-08-30T01:19:18.935Z,179.82
2022-08-30T01:20:19.045Z,174.74
2022-08-30T01:21:19.150Z,171.51
2022-08-30T01:22:19.485Z,172.21
2022-08-30T01:23:19.421Z,169.93
2022-08-30T01:24:19.527Z,169.76
2022-08-30T01:25:19.657Z,172.04
2022-08-30T01:26:22.132Z,172.57
2022-08-30T01:27:20.034Z,170.80
2022-08-30T01:28:20.114Z,172.93
2022-08-30T01:29:20.285Z,173.65
2022-08-30T01:30:20.294Z,170.63
2022-08-30T01:31:20.434Z,167.04
2022-08-30T01:32:21.235Z,164.41
2022-08-30T01:33:20.613Z,161.86
2022-08-30T01:34:20.782Z,158.32
2022-08-30T01:35:20.822Z,157.13
2022-08-30T01:36:20.902Z,156.84
2022-08-30T01:37:21.062Z,154.37
2022-08-30T01:38:21.174Z,155.38
2022-08-30T01:39:21.291Z,156.10
2022-08-30T01:40:21.460Z,157.28
2022-08-30T01:41:21.491Z,160.46
2022-08-30T01:42:21.675Z,159.99
2022-08-30T01:43:21.840Z,158.48
2022-08-30T01:44:21.879Z,161.86
2022-08-30T01:45:22.045Z,162.49
2022-08-30T01:46:22.379Z,163.60
2022-08-30T01:47:22.279Z,166.54
2022-08-30T01:48:22.430Z,168.39
2022-08-30T01:49:27.507Z,171.15
2022-08-30T01:50:22.620Z,171.68
2022-08-30T01:51:22.817Z,172.75
2022-08-30T01:52:22.859Z,172.04
2022-08-30T01:53:22.971Z,171.51
2022-08-30T01:54:23.072Z,171.86
2022-08-30T01:55:23.209Z,173.11
2022-08-30T01:56:23.421Z,172.04
2022-08-30T01:57:23.479Z,172.21
2022-08-30T01:58:23.659Z,173.65
2022-08-30T01:59:23.718Z,173.47
2022-08-30T02:00:23.819Z,173.83
2022-08-30T02:01:24.169Z,174.01
2022-08-30T02:02:24.188Z,174.01
2022-08-30T02:03:24.218Z,173.29
2022-08-30T02:04:24.287Z,172.57
2022-08-30T02:05:24.428Z,171.68
2022-08-30T02:06:24.715Z,169.42
2022-08-30T02:07:24.717Z,169.07
2022-08-30T02:08:24.978Z,168.90
2022-08-30T02:09:24.946Z,170.63
2022-08-30T02:10:25.038Z,170.28
2022-08-30T02:11:25.198Z,172.04
2022-08-30T02:12:25.329Z,172.39
2022-08-30T02:13:25.546Z,172.57
2022-08-30T02:14:25.538Z,173.29
2022-08-30T02:15:25.676Z,172.75
2022-08-30T02:16:25.873Z,171.33
2022-08-30T02:17:25.955Z,169.24
2022-08-30T02:18:26.149Z,168.22
2022-08-30T02:19:26.349Z,168.05
2022-08-30T02:20:26.333Z,168.73
2022-08-30T02:21:26.485Z,168.05
2022-08-30T02:22:26.585Z,166.04
2022-08-30T02:23:26.772Z,167.71
2022-08-30T02:24:26.804Z,167.71
2022-08-30T02:25:26.975Z,165.88
2022-08-30T02:26:27.078Z,165.06
2022-08-30T02:27:27.224Z,164.57
2022-08-30T02:28:27.483Z,162.96
2022-08-30T02:29:27.491Z,157.58
2022-08-30T02:30:27.613Z,152.12
2022-08-30T02:31:27.721Z,144.35
2022-08-30T02:32:27.821Z,137.80
2022-08-30T02:33:28.032Z,134.14
2022-08-30T02:34:28.082Z,132.34
2022-08-30T02:35:28.183Z,131.19
2022-08-30T02:36:28.365Z,130.78
2022-08-30T02:37:28.422Z,132.12
2022-08-30T02:38:28.512Z,130.68
2022-08-30T02:39:28.665Z,125.19
2022-08-30T02:40:28.951Z,123.70
2022-08-30T02:41:29.081Z,121.89
2022-08-30T02:42:29.031Z,118.60
2022-08-30T02:43:29.141Z,115.25
2022-08-30T02:44:29.250Z,111.10
2022-08-30T02:45:29.449Z,109.71
2022-08-30T02:46:34.448Z,109.07
2022-08-30T02:47:30.657Z,109.43
2022-08-30T02:48:29.809Z,112.60
2022-08-30T02:49:33.487Z,116.78
2022-08-30T02:50:30.000Z,119.62
2022-08-30T02:51:30.172Z,123.52
2022-08-30T02:52:30.217Z,126.61
2022-08-30T02:53:30.416Z,128.76
2022-08-30T02:54:30.468Z,130.47
2022-08-30T02:55:30.637Z,132.76
2022-08-30T02:56:30.887Z,133.61
2022-08-30T02:57:30.898Z,135.23
2022-08-30T02:58:31.000Z,134.90
2022-08-30T02:59:31.090Z,136.78
2022-08-30T03:00:31.517Z,137.23
2022-08-30T03:01:31.380Z,135.34
2022-08-30T03:02:31.468Z,132.65
2022-08-30T03:03:31.615Z,127.29
2022-08-30T03:04:31.732Z,125.19
2022-08-30T03:05:31.868Z,123.06
2022-08-30T03:06:32.030Z,120.57
2022-08-30T03:07:32.067Z,119.37
2022-08-30T03:08:32.225Z,117.11
2022-08-30T03:09:32.280Z,116.86
2022-08-30T03:10:32.444Z,115.89
2022-08-30T03:11:32.565Z,112.45
2022-08-30T03:12:32.673Z,112.98
2022-08-30T03:13:32.786Z,115.09
2022-08-30T03:14:32.894Z,114.45
2022-08-30T03:15:33.005Z,112.45
2022-08-30T03:16:33.247Z,110.44
2022-08-30T03:17:33.274Z,106.70
2022-08-30T03:18:33.377Z,102.57
2022-08-30T03:19:33.485Z,99.75
2022-08-30T03:20:33.624Z,97.30
2022-08-30T03:21:33.832Z,96.51
2022-08-30T03:22:33.907Z,98.39
2022-08-30T03:23:34.004Z,95.74
2022-08-30T03:24:34.111Z,95.30
2022-08-30T03:25:34.246Z,94.78
2022-08-30T03:26:34.476Z,94.67
2022-08-30T03:27:34.533Z,94.23
2022-08-30T03:28:34.641Z,95.14
2022-08-30T03:29:34.771Z,96.01
2022-08-30T03:30:34.894Z,96.51
2022-08-30T03:31:37.738Z,98.51
2022-08-30T03:32:36.082Z,98.51
2022-08-30T03:33:35.222Z,95.68
2022-08-30T03:34:35.361Z,96.96
2022-08-30T03:35:35.462Z,99.81
2022-08-30T03:36:35.661Z,102.25
2022-08-30T03:37:35.799Z,105.48
2022-08-30T03:38:35.790Z,106.56
2022-08-30T03:39:35.887Z,108.78
2022-08-30T03:40:36.166Z,109.57
2022-08-30T03:41:36.279Z,109.28
2022-08-30T03:42:36.450Z,107.66
2022-08-30T03:43:36.389Z,105.35
2022-08-30T03:44:36.508Z,103.97
2022-08-30T03:45:36.742Z,103.07
2022-08-30T03:46:37.595Z,99.39
2022-08-30T03:47:36.948Z,99.21
2022-08-30T03:48:37.049Z,98.33
2022-08-30T03:49:37.152Z,97.87
2022-08-30T03:50:37.281Z,97.53
2022-08-30T03:51:37.546Z,99.75
2022-08-30T03:52:37.558Z,101.50
2022-08-30T03:53:37.674Z,103.52
2022-08-30T03:54:37.827Z,104.04
2022-08-30T03:55:37.882Z,106.09
2022-08-30T03:56:38.096Z,107.73
2022-08-30T03:57:38.141Z,109.00
2022-08-30T03:58:39.280Z,110.00
2022-08-30T03:59:38.371Z,110.73
2022-08-30T04:00:38.562Z,110.37
2022-08-30T04:01:38.656Z,110.59
2022-08-30T04:02:38.767Z,110.59
2022-08-30T04:03:38.846Z,112.15
2022-08-30T04:04:39.038Z,114.53
2022-08-30T04:05:39.095Z,113.29
2022-08-30T04:06:39.203Z,111.92
2022-08-30T04:07:39.324Z,112.30
2022-08-30T04:08:39.425Z,112.83
2022-08-30T04:09:39.795Z,113.44
2022-08-30T04:10:39.636Z,113.60
2022-08-30T04:11:39.744Z,112.98
2022-08-30T04:12:39.853Z,111.10
2022-08-30T04:13:39.944Z,110.51
2022-08-30T04:14:40.124Z,111.18
2022-08-30T04:15:40.212Z,112.75
2022-08-30T04:16:40.354Z,113.52
2022-08-30T04:17:40.525Z,112.15
2022-08-30T04:18:40.513Z,108.64
2022-08-30T04:19:40.673Z,109.00
2022-08-30T04:20:40.783Z,108.50
2022-08-30T04:21:42.979Z,107.18
2022-08-30T04:22:41.051Z,105.28
2022-08-30T04:23:41.141Z,103.91
2022-08-30T04:24:41.289Z,104.49
2022-08-30T04:25:41.442Z,104.43
2022-08-30T04:26:41.553Z,104.89
2022-08-30T04:27:41.701Z,104.23
2022-08-30T04:28:41.801Z,101.07
2022-08-30T04:29:41.941Z,101.50
2022-08-30T04:30:42.101Z,101.57
2022-08-30T04:31:42.232Z,100.29
2022-08-30T04:32:42.460Z,98.62
2022-08-30T04:33:42.451Z,97.82
2022-08-30T04:34:42.550Z,96.13
2022-08-30T04:35:42.691Z,95.54
2022-08-30T04:36:42.800Z,90.96
2022-08-30T04:37:43.969Z,87.89
2022-08-30T04:38:43.058Z,87.71
2022-08-30T04:39:43.180Z,88.64
2022-08-30T04:40:43.358Z,89.40
2022-08-30T04:41:43.439Z,89.11
2022-08-30T04:42:43.666Z,90.86
2022-08-30T04:43:43.668Z,92.68
2022-08-30T04:44:43.771Z,93.93
2022-08-30T04:45:43.973Z,95.43
2022-08-30T04:46:44.499Z,94.98
2022-08-30T04:47:44.338Z,95.90
2022-08-30T04:48:44.258Z,94.98
2022-08-30T04:49:44.425Z,94.46
2022-08-30T04:50:44.528Z,92.88
2022-08-30T04:51:44.685Z,90.66
2022-08-30T04:52:44.916Z,88.54
2022-08-30T04:53:44.907Z,85.29
2022-08-30T04:54:45.047Z,85.37
2022-08-30T04:55:45.214Z,84.34
2022-08-30T04:56:45.295Z,84.51
2022-08-30T04:57:45.716Z,84.17
2022-08-30T04:58:45.486Z,84.17
2022-08-30T04:59:45.596Z,83.41
2022-08-30T05:00:45.753Z,84.08
2022-08-30T05:01:46.214Z,86.70
2022-08-30T05:02:46.182Z,89.21
2022-08-30T05:03:46.097Z,91.06
2022-08-30T05:04:46.203Z,91.66
2022-08-30T05:05:46.358Z,90.96
2022-08-30T05:06:46.486Z,90.56
2022-08-30T05:07:46.594Z,89.78
2022-08-30T05:08:48.273Z,88.92
2022-08-30T05:09:46.848Z,89.02
2022-08-30T05:10:47.003Z,88.73
2022-08-30T05:11:47.093Z,87.71
2022-08-30T05:12:47.314Z,86.79
2022-08-30T05:13:47.324Z,87.07
2022-08-30T05:14:47.452Z,88.36
2022-08-30T05:15:47.608Z,86.89
2022-08-30T05:16:47.690Z,86.17
2022-08-30T05:17:47.884Z,85.29
2022-08-30T05:18:47.911Z,86.26
2022-08-30T05:19:48.060Z,86.97
2022-08-30T05:20:48.218Z,87.61
2022-08-30T05:21:48.310Z,87.98
2022-08-30T05:22:48.535Z,87.89
2022-08-30T05:23:48.571Z,87.61
2022-08-30T05:24:48.691Z,86.43
2022-08-30T05:25:48.862Z,85.99
2022-08-30T05:26:48.940Z,84.34
2022-08-30T05:27:49.019Z,81.22
2022-08-30T05:28:49.737Z,81.14
2022-08-30T05:29:49.278Z,78.76
2022-08-30T05:30:49.410Z,80.51
2022-08-30T05:31:49.586Z,81.54
2022-08-30T05:32:49.619Z,81.46
2022-08-30T05:33:49.768Z,80.82
2022-08-30T05:34:49.861Z,79.14
2022-08-30T05:35:50.197Z,77.23
2022-08-30T05:36:50.118Z,74.01
2022-08-30T05:37:50.258Z,72.35
2022-08-30T05:38:50.359Z,71.29
2022-08-30T05:39:51.658Z,70.99
2022-08-30T05:40:50.798Z,70.99
2022-08-30T05:41:50.737Z,71.60
2022-08-30T05:42:50.877Z,71.79
2022-08-30T05:43:51.018Z,72.66
2022-08-30T05:44:51.156Z,73.75
2022-08-30T05:45:51.417Z,73.62
2022-08-30T05:46:51.357Z,73.82
2022-08-30T05:47:51.467Z,74.48
2022-08-30T05:48:51.544Z,75.49
2022-08-30T05:49:51.703Z,75.35
2022-08-30T05:50:51.885Z,75.83
2022-08-30T05:51:52.036Z,76.74
2022-08-30T05:52:52.093Z,78.03
2022-08-30T05:53:52.225Z,80.43
2022-08-30T05:54:52.343Z,82.75
2022-08-30T05:55:52.515Z,84.25
2022-08-30T05:56:52.573Z,86.26
2022-08-30T05:57:52.743Z,86.17
2022-08-30T05:58:52.844Z,85.03
2022-08-30T05:59:52.933Z,84.25
2022-08-30T06:00:53.162Z,83.91
2022-08-30T06:01:53.269Z,82.42
2022-08-30T06:02:53.382Z,86.70
2022-08-30T06:03:53.468Z,90.66
2022-08-30T06:04:53.631Z,92.26
2022-08-30T06:05:53.836Z,95.76
2022-08-30T06:06:53.833Z,94.71
2022-08-30T06:07:53.944Z,93.72
2022-08-30T06:08:54.042Z,95.32
2022-08-30T06:09:54.183Z,95.41
2022-08-30T06:10:54.433Z,97.30
2022-08-30T06:11:54.423Z,101.44
2022-08-30T06:12:54.529Z,106.36
2022-08-30T06:13:54.651Z,109.64
2022-08-30T06:14:54.761Z,112.90
2022-08-30T06:15:55.101Z,116.05
2022-08-30T06:16:55.011Z,120.23
2022-08-30T06:17:55.113Z,123.61
2022-08-30T06:18:55.220Z,124.72
2022-08-30T06:19:55.342Z,120.92
2022-08-30T06:20:55.519Z,124.25
2022-08-30T06:21:55.580Z,126.52
2022-08-30T06:22:55.694Z,132.02
2022-08-30T06:23:55.800Z,131.09
2022-08-30T06:24:58.071Z,132.23
2022-08-30T06:25:56.180Z,130.78
2022-08-30T06:26:56.219Z,129.66
2022-08-30T06:27:56.747Z,133.18
2022-08-30T06:28:56.451Z,135.78
2022-08-30T06:29:56.559Z,133.93
2022-08-30T06:30:56.897Z,132.86
2022-08-30T06:31:56.790Z,135.78
2022-08-30T06:32:56.961Z,141.18
2022-08-30T06:33:57.057Z,144.23
2022-08-30T06:34:57.199Z,150.20
2022-08-30T06:35:58.417Z,154.94
2022-08-30T06:36:57.515Z,157.88
2022-08-30T06:37:57.620Z,163.28
2022-08-30T06:38:57.718Z,165.71
2022-08-30T06:39:57.941Z,167.71
2022-08-30T06:40:58.009Z,166.88
2022-08-30T06:41:58.098Z,170.80
2022-08-30T06:42:58.199Z,176.77
2022-08-30T06:43:58.297Z,182.18
2022-08-30T06:44:58.466Z,182.38
2022-08-30T06:45:58.719Z,186.15
2022-08-30T06:46:58.707Z,189.70
2022-08-30T06:48:58.989Z,187.00
2022-08-30T06:49:59.091Z,185.83
2022-08-30T06:50:59.328Z,185.62
2022-08-30T06:51:59.516Z,185.21
2022-08-30T06:52:59.455Z,185.73
2022-08-30T06:53:59.567Z,188.83
2022-08-30T06:54:59.676Z,188.18
2022-08-30T06:55:59.851Z,195.12
2022-08-30T06:56:59.963Z,199.87
2022-08-30T06:58:00.026Z,203.59
2022-08-30T06:59:00.136Z,210.24
2022-08-30T07:00:00.234Z,218.79
2022-08-30T07:01:00.455Z,221.15
2022-08-30T07:02:00.525Z,221.45
2022-08-30T07:03:00.630Z,221.30
2022-08-30T07:04:00.715Z,218.65
2022-08-30T07:05:00.827Z,223.87
2022-08-30T07:06:00.975Z,229.35
2022-08-30T07:07:01.147Z,232.10
2022-08-30T07:08:01.206Z,228.55
2022-08-30T07:09:01.829Z,230.80
2022-08-30T07:10:01.435Z,233.59
2022-08-30T07:11:01.647Z,239.04
2022-08-30T07:12:01.650Z,247.70
2022-08-30T07:13:01.765Z,250.15
2022-08-30T07:14:01.875Z,253.24
2022-08-30T07:15:01.994Z,261.52
2022-08-30T07:16:02.235Z,261.94
2022-08-30T07:17:02.344Z,267.05
2022-08-30T07:18:02.358Z,267.93
2022-08-30T07:19:02.446Z,263.83
2022-08-30T07:20:02.608Z,255.61
2022-08-30T07:21:02.845Z,259.66
2022-08-30T07:22:02.835Z,263.83
2022-08-30T07:23:02.944Z,271.25
2022-08-30T07:24:03.044Z,266.62
2022-08-30T07:25:03.184Z,270.80
2022-08-30T07:26:03.452Z,273.74
2022-08-30T07:27:03.472Z,277.44
2022-08-30T07:28:03.578Z,279.09
2022-08-30T07:29:03.684Z,284.91
2022-08-30T07:30:03.784Z,295.16
2022-08-30T07:31:04.140Z,295.43
2022-08-30T07:32:04.016Z,296.23
2022-08-30T07:33:04.124Z,299.47
2022-08-30T07:34:04.213Z,296.23
2022-08-30T07:35:04.364Z,290.46
2022-08-30T07:36:04.565Z,283.92
2022-08-30T07:37:04.630Z,271.70
2022-08-30T07:38:04.744Z,275.81
2022-08-30T07:39:04.875Z,275.58
2022-08-30T07:40:04.982Z,282.21
2022-08-30T07:41:05.253Z,292.79
2022-08-30T07:42:05.312Z,296.76
2022-08-30T07:43:05.361Z,301.95
2022-08-30T07:44:05.462Z,301.12
2022-08-30T07:45:05.572Z,297.30
2022-08-30T07:46:05.879Z,297.30
2022-08-30T07:47:05.831Z,302.79
2022-08-30T07:48:05.962Z,307.90
2022-08-30T07:49:11.092Z,308.77
2022-08-30T07:50:07.192Z,311.41
2022-08-30T07:51:06.422Z,312.60
2022-08-30T07:52:06.413Z,308.77
2022-08-30T07:53:09.253Z,303.91
2022-08-30T07:54:06.668Z,310.23
2022-08-30T07:55:06.827Z,312.89
2022-08-30T07:56:06.990Z,321.48
2022-08-30T07:57:07.140Z,321.48
2022-08-30T07:58:07.256Z,324.66
2022-08-30T07:59:07.343Z,324.66
2022-08-30T08:00:07.522Z,324.34
2022-08-30T08:01:07.692Z,326.27
2022-08-30T08:02:07.791Z,330.88
2022-08-30T08:03:08.143Z,334.93
2022-08-30T08:04:07.962Z,335.62
2022-08-30T08:05:08.073Z,332.89
2022-08-30T08:06:08.337Z,327.90
2022-08-30T08:07:08.301Z,328.23
2022-08-30T08:08:08.549Z,324.02
2022-08-30T08:09:08.570Z,319.91
2022-08-30T08:10:08.741Z,316.82
2022-08-30T08:11:08.870Z,313.49
2022-08-30T08:12:09.020Z,309.06
2022-08-30T08:13:09.129Z,313.19
2022-08-30T08:14:09.281Z,314.69
2022-08-30T08:15:09.351Z,317.13
2022-08-30T08:16:09.603Z,323.70
2022-08-30T08:17:09.590Z,329.55
2022-08-30T08:18:09.800Z,331.21
2022-08-30T08:19:09.833Z,331.55
2022-08-30T08:20:09.929Z,337.34
2022-08-30T08:21:10.149Z,329.55
2022-08-30T08:22:20.572Z,329.22
2022-08-30T08:23:11.328Z,331.21
2022-08-30T08:24:10.408Z,344.06
2022-08-30T08:25:10.550Z,352.95
2022-08-30T08:26:10.859Z,364.71
2022-08-30T08:27:10.870Z,369.23
2022-08-30T08:28:10.979Z,380.18
2022-08-30T08:29:11.078Z,388.60
2022-08-30T08:30:11.169Z,387.69
2022-08-30T08:31:11.372Z,386.79
2022-08-30T08:32:11.391Z,391.10
2022-08-30T08:33:11.552Z,398.11
2022-08-30T08:34:11.680Z,401.46
2022-08-30T08:35:11.751Z,396.69
2022-08-30T08:36:12.042Z,395.75
2022-08-30T08:37:12.177Z,395.04
2022-08-30T08:38:12.326Z,394.81
2022-08-30T08:39:12.283Z,377.30
2022-08-30T08:40:12.466Z,367.57
2022-08-30T08:41:12.638Z,381.92
2022-08-30T08:42:12.575Z,388.82
2022-08-30T08:43:12.748Z,394.58
2022-08-30T08:44:12.846Z,405.86
2022-08-30T08:45:12.988Z,414.44
2022-08-30T08:46:13.245Z,426.91
2022-08-30T08:47:13.701Z,428.01
2022-08-30T08:48:13.452Z,432.45
2022-08-30T08:49:13.468Z,429.11
2022-08-30T08:50:17.436Z,429.38
2022-08-30T08:51:15.005Z,431.89
2022-08-30T08:52:13.838Z,426.09
2022-08-30T08:53:20.519Z,426.09
2022-08-30T08:54:15.081Z,424.19
2022-08-30T08:55:14.178Z,426.91
2022-08-30T08:56:14.289Z,434.42
2022-08-30T08:57:16.591Z,450.26
2022-08-30T08:58:14.517Z,456.42
2022-08-30T08:59:14.609Z,456.42
2022-08-30T09:00:14.769Z,469.93
2022-08-30T09:01:15.056Z,468.61
2022-08-30T09:02:15.008Z,466.32
2022-08-30T09:03:15.116Z,454.55
2022-08-30T09:04:15.227Z,459.88
2022-08-30T09:05:15.382Z,457.67
2022-08-30T09:06:15.487Z,457.99
2022-08-30T09:07:15.597Z,458.30
2022-08-30T09:08:15.696Z,456.11
2022-08-30T09:09:15.796Z,453.63
2022-08-30T09:10:18.355Z,447.24
2022-08-30T09:11:17.154Z,450.56
2022-08-30T09:12:16.197Z,451.48
2022-08-30T09:13:18.252Z,446.64
2022-08-30T09:14:16.427Z,445.45
2022-08-30T09:15:16.599Z,450.26
2022-08-30T09:16:22.500Z,459.88
2022-08-30T09:17:17.896Z,463.40
2022-08-30T09:18:19.642Z,473.27
2022-08-30T09:19:17.077Z,479.74
2022-08-30T09:20:17.215Z,484.27
2022-08-30T09:21:17.376Z,492.86
2022-08-30T09:22:17.516Z,497.64
2022-08-30T09:23:17.825Z,501.38
2022-08-30T09:24:18.843Z,521.37
2022-08-30T09:25:18.895Z,528.39
2022-08-30T09:26:18.045Z,525.48
2022-08-30T09:27:18.202Z,527.14
2022-08-30T09:28:19.355Z,536.47
2022-08-30T09:29:18.385Z,554.31
2022-08-30T09:30:18.546Z,566.55
2022-08-30T09:31:18.671Z,566.55
2022-08-30T09:32:25.363Z,574.36
2022-08-30T09:33:19.975Z,571.41
2022-08-30T09:34:19.023Z,589.08
2022-08-30T09:35:19.135Z,586.48
2022-08-30T09:36:19.224Z,584.94
2022-08-30T09:37:19.325Z,590.12
2022-08-30T09:38:19.655Z,607.87
2022-08-30T09:39:19.593Z,611.77
2022-08-30T09:40:19.748Z,611.21
2022-08-30T09:41:19.842Z,606.76
2022-08-30T09:42:19.935Z,610.09
2022-08-30T09:43:20.161Z,626.13
2022-08-30T09:44:20.284Z,634.47
2022-08-30T09:45:20.344Z,633.87
2022-08-30T09:46:20.476Z,638.12
2022-08-30T09:47:24.033Z,646.78
2022-08-30T09:48:20.906Z,656.98
2022-08-30T09:49:20.862Z,675.62
2022-08-30T09:50:20.972Z,681.14
2022-08-30T09:51:21.078Z,681.83
2022-08-30T09:52:21.222Z,691.73
2022-08-30T09:53:23.378Z,697.52
2022-08-30T09:54:21.513Z,697.52
2022-08-30T09:55:21.592Z,698.99
2022-08-30T09:56:21.742Z,677.67
2022-08-30T09:57:21.890Z,671.53
2022-08-30T09:58:26.770Z,649.30
2022-08-30T09:59:23.144Z,653.76
2022-08-30T10:00:22.273Z,659.58
2022-08-30T10:01:22.874Z,679.75
2022-08-30T10:02:22.565Z,664.18
2022-08-30T10:03:35.281Z,664.84
2022-08-30T10:04:26.278Z,685.34
2022-08-30T10:05:22.910Z,701.19
2022-08-30T10:06:23.043Z,693.90
2022-08-30T10:07:23.140Z,684.63
2022-08-30T10:08:25.507Z,677.67
2022-08-30T10:09:23.385Z,663.52
2022-08-30T10:10:23.480Z,661.54
2022-08-30T10:11:23.641Z,681.83
2022-08-30T10:12:23.750Z,683.93
2022-08-30T10:13:23.862Z,693.17
2022-08-30T10:14:24.117Z,703.41
2022-08-30T10:15:24.100Z,697.52
2022-08-30T10:16:24.252Z,689.59
2022-08-30T10:17:27.025Z,693.90
2022-08-30T10:18:24.521Z,689.59
2022-08-30T10:19:24.811Z,696.07
2022-08-30T10:20:24.765Z,719.34
2022-08-30T10:21:24.990Z,716.25
2022-08-30T10:22:25.038Z,714.72
2022-08-30T10:23:25.204Z,707.89
2022-08-30T10:24:25.822Z,699.72
2022-08-30T10:25:25.479Z,693.17
2022-08-30T10:26:25.597Z,689.59
2022-08-30T10:27:25.700Z,701.93
2022-08-30T10:28:25.859Z,716.25
2022-08-30T10:29:26.049Z,714.72
2022-08-30T10:30:26.171Z,724.82
2022-08-30T10:31:26.260Z,732.78
2022-08-30T10:32:26.381Z,736.83
2022-08-30T10:33:26.507Z,741.75
2022-08-30T10:34:27.667Z,755.09
2022-08-30T10:35:26.748Z,752.54
2022-08-30T10:36:26.869Z,757.23
2022-08-30T10:37:26.968Z,757.66
2022-08-30T10:38:27.137Z,746.23
2022-08-30T10:39:27.237Z,738.46
2022-08-30T10:40:27.605Z,731.98
2022-08-30T10:41:27.507Z,736.83
2022-08-30T10:42:27.655Z,724.03
2022-08-30T10:43:27.808Z,714.72
2022-08-30T10:44:27.937Z,734.40
2022-08-30T10:45:28.159Z,749.58
2022-08-30T10:46:28.187Z,717.80
2022-08-30T10:47:28.396Z,727.19
2022-08-30T10:48:28.425Z,711.67
2022-08-30T10:49:28.535Z,720.90
2022-08-30T10:50:28.764Z,722.46
2022-08-30T10:51:28.820Z,750.42
2022-08-30T10:52:28.914Z,756.37
2022-08-30T10:53:29.087Z,750.42
2022-08-30T10:54:29.186Z,748.74
2022-08-30T10:55:29.337Z,736.83
2022-08-30T10:56:29.409Z,727.19
2022-08-30T10:57:29.506Z,749.58
2022-08-30T10:58:29.666Z,742.58
2022-08-30T10:59:29.798Z,762.42
2022-08-30T11:00:29.938Z,774.81
2022-08-30T11:01:30.164Z,771.68
2022-08-30T11:02:30.177Z,779.79
2022-08-30T11:03:30.297Z,780.24
2022-08-30T11:04:30.414Z,783.45
2022-08-30T11:05:30.575Z,797.01
2022-08-30T11:06:30.647Z,784.83
2022-08-30T11:07:30.714Z,778.42
2022-08-30T11:08:30.845Z,784.37
2022-08-30T11:09:30.971Z,773.46
2022-08-30T11:10:31.066Z,781.16
2022-08-30T11:11:31.205Z,759.82
2022-08-30T11:12:31.315Z,773.91
2022-08-30T11:13:31.415Z,774.36
2022-08-30T11:14:31.514Z,760.25
2022-08-30T11:15:31.913Z,781.16
2022-08-30T11:16:31.803Z,776.61
2022-08-30T11:17:31.964Z,785.76
2022-08-30T11:18:32.070Z,772.12
2022-08-30T11:19:32.455Z,785.76
2022-08-30T11:20:34.638Z,784.37
2022-08-30T11:21:32.431Z,778.88
2022-08-30T11:22:36.825Z,776.16
2022-08-30T11:23:33.673Z,786.22
2022-08-30T11:24:32.772Z,809.09
2022-08-30T11:25:33.003Z,814.02
2022-08-30T11:26:33.055Z,818.52
2022-08-30T11:27:33.103Z,811.06
2022-08-30T11:28:33.223Z,814.52
2022-08-30T11:29:33.350Z,832.29
2022-08-30T11:30:33.681Z,811.06
2022-08-30T11:31:33.592Z,811.55
2022-08-30T11:32:33.712Z,827.65
2022-08-30T11:33:33.869Z,834.38
2022-08-30T11:34:33.981Z,851.40
2022-08-30T11:35:34.133Z,869.71
2022-08-30T11:36:37.246Z,851.95
2022-08-30T11:37:34.361Z,840.15
2022-08-30T11:38:34.469Z,844.40
2022-08-30T11:39:34.574Z,866.32
2022-08-30T11:40:34.867Z,874.26
2022-08-30T11:41:38.278Z,868.58
2022-08-30T11:42:35.980Z,858.52
2022-08-30T11:43:35.113Z,838.57
2022-08-30T11:44:35.221Z,820.53
2022-08-30T11:45:35.563Z,826.11
2022-08-30T11:46:35.481Z,839.09
2022-08-30T11:47:35.610Z,835.94
2022-08-30T11:48:35.730Z,842.27
2022-08-30T11:49:36.361Z,842.27
2022-08-30T11:50:36.000Z,860.73
2022-08-30T11:51:36.100Z,868.58
2022-08-30T11:52:36.168Z,848.70
2022-08-30T11:53:36.288Z,871.98
2022-08-30T11:54:36.408Z,881.19
2022-08-30T11:55:36.580Z,898.99
2022-08-30T11:56:36.620Z,892.98
2022-08-30T11:57:36.789Z,891.78
2022-08-30T11:58:36.910Z,874.26
2022-08-30T11:59:37.002Z,869.71
2022-08-30T12:00:37.285Z,873.12
2022-08-30T12:01:50.806Z,879.45
2022-08-30T12:02:38.605Z,863.52
2022-08-30T12:03:37.658Z,878.29
2022-08-30T12:04:37.732Z,883.52
2022-08-30T12:05:37.990Z,900.20
2022-08-30T12:06:37.926Z,906.31
2022-08-30T12:07:38.040Z,896.57
2022-08-30T12:08:38.189Z,905.70
2022-08-30T12:09:38.309Z,920.05
2022-08-30T12:10:38.533Z,911.89
2022-08-30T12:11:38.518Z,891.78
2022-08-30T12:12:38.650Z,899.59
2022-08-30T12:13:38.818Z,915.01
2022-08-30T12:14:40.813Z,939.48
2022-08-30T12:15:39.158Z,942.80
2022-08-30T12:16:39.400Z,954.25
2022-08-30T12:17:39.359Z,961.12
2022-08-30T12:18:39.471Z,956.99
2022-08-30T12:19:41.399Z,954.25
2022-08-30T12:20:39.844Z,948.83
2022-08-30T12:21:44.733Z,928.37
2022-08-30T12:22:41.013Z,935.53
2022-08-30T12:23:44.583Z,938.82
2022-08-30T12:24:40.231Z,942.13
2022-08-30T12:25:40.558Z,954.25
2022-08-30T12:26:41.262Z,971.61
2022-08-30T12:27:40.638Z,985.24
2022-08-30T12:28:42.184Z,986.70
2022-08-30T12:29:40.858Z,970.20
2022-08-30T12:30:41.019Z,970.91
2022-08-30T12:31:41.216Z,962.51
2022-08-30T12:32:41.258Z,940.80
2022-08-30T12:33:41.715Z,931.61
2022-08-30T12:34:41.537Z,913.76